Observation data for Knox City on 11/16/2019      Previous  Date       Current Mesonet Observations  Soil Data  Daily Summary Page  Observations in Plain Language
KKN1 160600Z 17007KT 06/01 A3021 RMK A01 T00630007  RH  068%=      5-min Rain = 0
KKN1 160605Z 17007KT 07/01 A3021 RMK A01 T00650007  RH  067%=      5-min Rain = 0
KKN1 160610Z 18006KT 06/01 A3021 RMK A01 T00640006  RH  067%=      5-min Rain = 0
KKN1 160615Z 20005KT 06/01 A3021 RMK A01 T00620006  RH  068%=      5-min Rain = 0
KKN1 160620Z 20004KT 06/01 A3021 RMK A01 T00610005  RH  069%=      5-min Rain = 0
KKN1 160625Z 20003KT 06/01 A3021 RMK A01 T00580006  RH  070%=      5-min Rain = 0
KKN1 160630Z 20004KT 06/01 A3021 RMK A01 T00580006  RH  070%=      5-min Rain = 0
KKN1 160635Z 21004KT 06/01 A3021 RMK A01 T00560005  RH  071%=      5-min Rain = 0
KKN1 160640Z 22004KT 06/01 A3021 RMK A01 T00550005  RH  071%=      5-min Rain = 0
KKN1 160645Z 22004KT 05/01 A3021 RMK A01 T00530005  RH  072%=      5-min Rain = 0
KKN1 160650Z 21004KT 05/01 A3021 RMK A01 T00520006  RH  073%=      5-min Rain = 0
KKN1 160655Z 20005KT 05/01 A302 RMK A01 T00490005  RH  074%=      5-min Rain = 0
KKN1 160700Z 20005KT 05/01 A302 RMK A01 T00480005  RH  075%=      5-min Rain = 0
KKN1 160705Z 20006KT 05/01 A302 RMK A01 T00530006  RH  073%=      5-min Rain = 0
KKN1 160710Z 20006KT 06/01 A302 RMK A01 T00600006  RH  069%=      5-min Rain = 0
KKN1 160715Z 20006KT 06/01 A302 RMK A01 T00610006  RH  068%=      5-min Rain = 0
KKN1 160720Z 20006KT 06/01 A302 RMK A01 T00580005  RH  069%=      5-min Rain = 0
KKN1 160725Z 20006KT 05/01 A3019 RMK A01 T00540005  RH  071%=      5-min Rain = 0
KKN1 160730Z 20006KT 05/01 A3019 RMK A01 T00510005  RH  073%=      5-min Rain = 0
KKN1 160735Z 20006KT 05/01 A3019 RMK A01 T00500005  RH  074%=      5-min Rain = 0
KKN1 160740Z 20006KT 05/01 A3019 RMK A01 T00500006  RH  074%=      5-min Rain = 0
KKN1 160745Z 20005KT 05/01 A3019 RMK A01 T00510006  RH  073%=      5-min Rain = 0
KKN1 160750Z 20005KT 05/01 A3019 RMK A01 T00520005  RH  073%=      5-min Rain = 0
KKN1 160755Z 20005KT 05/01 A3019 RMK A01 T00530005  RH  072%=      5-min Rain = 0
KKN1 160800Z 21005KT 06/01 A3019 RMK A01 T00550005  RH  071%=      5-min Rain = 0
KKN1 160805Z 21006KT 06/00 A3019 RMK A01 T00560004  RH  070%=      5-min Rain = 0
KKN1 160810Z 20005KT 06/01 A3019 RMK A01 T00550005  RH  071%=      5-min Rain = 0
KKN1 160815Z 20004KT 05/01 A3019 RMK A01 T00520006  RH  073%=      5-min Rain = 0
KKN1 160820Z 20005KT 05/01 A3019 RMK A01 T00530005  RH  072%=      5-min Rain = 0
KKN1 160825Z 20004KT 05/00 A3019 RMK A01 T00530004  RH  071%=      5-min Rain = 0
KKN1 160830Z 20003KT 05/00 A3019 RMK A01 T00540004  RH  071%=      5-min Rain = 0
KKN1 160835Z 22002KT 06/00 A3019 RMK A01 T00550003  RH  070%=      5-min Rain = 0
KKN1 160840Z 22003KT 05/00 A3019 RMK A01 T00540003  RH  070%=      5-min Rain = 0
KKN1 160845Z 21003KT 06/00 A3019 RMK A01 T00550004  RH  071%=      5-min Rain = 0
KKN1 160850Z 21004KT 05/00 A3019 RMK A01 T00510004  RH  072%=      5-min Rain = 0
KKN1 160855Z 20005KT 05/00 A3019 RMK A01 T00480004  RH  074%=      5-min Rain = 0
KKN1 160900Z 21004KT 05/00 A3019 RMK A01 T00470004  RH  074%=      5-min Rain = 0
KKN1 160905Z 21004KT 05/00 A3019 RMK A01 T00470003  RH  074%=      5-min Rain = 0
KKN1 160910Z 21004KT 04/00 A3019 RMK A01 T00420003  RH  077%=      5-min Rain = 0
KKN1 160915Z 21004KT 04/00 A3019 RMK A01 T00410003  RH  077%=      5-min Rain = 0
KKN1 160920Z 21004KT 04/00 A3018 RMK A01 T00360003  RH  080%=      5-min Rain = 0
KKN1 160925Z 21006KT 03/01 A3018 RMK A01 T00340005  RH  082%=      5-min Rain = 0
KKN1 160930Z 20006KT 04/01 A3018 RMK A01 T00350006  RH  083%=      5-min Rain = 0
KKN1 160935Z 20005KT 04/01 A3018 RMK A01 T00350005  RH  082%=      5-min Rain = 0
KKN1 160940Z 20005KT 04/01 A3018 RMK A01 T00370005  RH  081%=      5-min Rain = 0
KKN1 160945Z 20005KT 04/01 A3018 RMK A01 T00370005  RH  081%=      5-min Rain = 0
KKN1 160950Z 20005KT 04/01 A3018 RMK A01 T00380005  RH  080%=      5-min Rain = 0
KKN1 160955Z 20004KT 04/00 A3018 RMK A01 T00380004  RH  080%=      5-min Rain = 0
KKN1 161000Z 20004KT 04/00 A3018 RMK A01 T00370003  RH  080%=      5-min Rain = 0
KKN1 161005Z 20003KT 03/00 A3018 RMK A01 T00330004  RH  082%=      5-min Rain = 0
KKN1 161010Z 20004KT 03/00 A3018 RMK A01 T00310004  RH  084%=      5-min Rain = 0
KKN1 161015Z 20004KT 03/01 A3018 RMK A01 T00300005  RH  085%=      5-min Rain = 0
KKN1 161020Z 19004KT 03/01 A3018 RMK A01 T00310005  RH  084%=      5-min Rain = 0
KKN1 161025Z 19004KT 03/00 A3018 RMK A01 T00340004  RH  082%=      5-min Rain = 0
KKN1 161030Z 19004KT 04/00 A3018 RMK A01 T00360002  RH  079%=      5-min Rain = 0
KKN1 161035Z 19004KT 04/00 A3018 RMK A01 T00350001  RH  079%=      5-min Rain = 0
KKN1 161040Z 19004KT 04/00 A3018 RMK A01 T00350001  RH  079%=      5-min Rain = 0
KKN1 161045Z 19004KT 03/00 A3017 RMK A01 T00340001  RH  080%=      5-min Rain = 0
KKN1 161050Z 19004KT 03/00 A3017 RMK A01 T00310002  RH  082%=      5-min Rain = 0
KKN1 161055Z 19004KT 03/00 A3017 RMK A01 T00280003  RH  085%=      5-min Rain = 0
KKN1 161100Z 19005KT 02/00 A3017 RMK A01 T00240002  RH  086%=      5-min Rain = 0
KKN1 161105Z 19005KT 02/00 A3017 RMK A01 T00210001  RH  087%=      5-min Rain = 0
KKN1 161110Z 18005KT 02/00 A3017 RMK A01 T00190001  RH  089%=      5-min Rain = 0
KKN1 161115Z 18005KT 02/00 A3017 RMK A01 T00200002  RH  089%=      5-min Rain = 0
KKN1 161120Z 19004KT 02/00 A3017 RMK A01 T00220002  RH  088%=      5-min Rain = 0
KKN1 161125Z 19003KT 02/00 A3017 RMK A01 T002200-0  RH  086%=      5-min Rain = 0
KKN1 161130Z 20003KT 02/M00 A3017 RMK A01 T00201002  RH  086%=      5-min Rain = 0
KKN1 161135Z 21004KT 02/M00 A3017 RMK A01 T00191003  RH  086%=      5-min Rain = 0
KKN1 161140Z 21004KT 02/M00 A3017 RMK A01 T00171003  RH  087%=      5-min Rain = 0
KKN1 161145Z 21004KT 02/M00 A3017 RMK A01 T00171002  RH  088%=      5-min Rain = 0
KKN1 161150Z 21004KT 02/M00 A3017 RMK A01 T00161001  RH  089%=      5-min Rain = 0
KKN1 161155Z 21004KT 02/M00 A3017 RMK A01 T00161001  RH  090%=      5-min Rain = 0
KKN1 161200Z 21005KT 02/M00 A3017 RMK A01 T00161001  RH  089%=      5-min Rain = 0
KKN1 161205Z 21005KT 02/M00 A3017 RMK A01 T00151003  RH  088%=      5-min Rain = 0
KKN1 161210Z 21005KT 01/M00 A3018 RMK A01 T00141004  RH  089%=      5-min Rain = 0
KKN1 161215Z 21005KT 01/M00 A3018 RMK A01 T00131004  RH  089%=      5-min Rain = 0
KKN1 161220Z 21004KT 01/M00 A3017 RMK A01 T00131003  RH  090%=      5-min Rain = 0
KKN1 161225Z 21004KT 01/M00 A3017 RMK A01 T00131002  RH  091%=      5-min Rain = 0
KKN1 161230Z 21005KT 01/M00 A3017 RMK A01 T00131003  RH  090%=      5-min Rain = 0
KKN1 161235Z 20005KT 01/M01 A3017 RMK A01 T00121005  RH  089%=      5-min Rain = 0
KKN1 161240Z 20005KT 01/M01 A3017 RMK A01 T00111006  RH  089%=      5-min Rain = 0
KKN1 161245Z 19004KT 01/M01 A3017 RMK A01 T00121006  RH  089%=      5-min Rain = 0
KKN1 161250Z 19004KT 01/M01 A3017 RMK A01 T00111006  RH  090%=      5-min Rain = 0
KKN1 161255Z 19005KT 01/M00 A3017 RMK A01 T00101004  RH  091%=      5-min Rain = 0
KKN1 161300Z 19006KT 01/M00 A3017 RMK A01 T00131002  RH  091%=      5-min Rain = 0
KKN1 161305Z 18006KT 01/M00 A3017 RMK A01 T00141002  RH  090%=      5-min Rain = 0
KKN1 161310Z 19006KT 02/M00 A3017 RMK A01 T00151002  RH  089%=      5-min Rain = 0
KKN1 161315Z 19006KT 02/M00 A3018 RMK A01 T00161002  RH  089%=      5-min Rain = 0
KKN1 161320Z 19006KT 02/00 A3018 RMK A01 T001800-0  RH  089%=      5-min Rain = 0
KKN1 161325Z 19004KT 02/00 A3018 RMK A01 T001900-0  RH  088%=      5-min Rain = 0
KKN1 161330Z 20003KT 02/00 A3018 RMK A01 T002000-0  RH  087%=      5-min Rain = 0
KKN1 161335Z 20004KT 02/M00 A3018 RMK A01 T00221001  RH  086%=      5-min Rain = 0
KKN1 161340Z 20004KT 02/00 A3018 RMK A01 T00220001  RH  087%=      5-min Rain = 0
KKN1 161345Z 21004KT 03/01 A3018 RMK A01 T00260005  RH  087%=      5-min Rain = 0
KKN1 161350Z 23003KT 03/01 A3018 RMK A01 T00300006  RH  085%=      5-min Rain = 0
KKN1 161355Z 23003KT 03/01 A3018 RMK A01 T00320005  RH  084%=      5-min Rain = 0
KKN1 161400Z 22003KT 04/01 A3018 RMK A01 T00350008  RH  084%=      5-min Rain = 0
KKN1 161405Z 21003KT 04/01 A3018 RMK A01 T00350008  RH  084%=      5-min Rain = 0
KKN1 161410Z 21003KT 04/01 A3018 RMK A01 T00360010  RH  084%=      5-min Rain = 0
KKN1 161415Z 21003KT 04/01 A3018 RMK A01 T00370011  RH  084%=      5-min Rain = 0
KKN1 161420Z 21002KT 04/01 A3018 RMK A01 T00390013  RH  084%=      5-min Rain = 0
KKN1 161425Z 21002KT 04/02 A3018 RMK A01 T00430016  RH  084%=      5-min Rain = 0
KKN1 161430Z 21002KT 05/02 A3018 RMK A01 T00470017  RH  082%=      5-min Rain = 0
KKN1 161435Z 20003KT 05/02 A3018 RMK A01 T00530020  RH  081%=      5-min Rain = 0
KKN1 161440Z 20003KT 06/02 A3018 RMK A01 T00600023  RH  078%=      5-min Rain = 0
KKN1 161445Z 20004KT 07/03 A3018 RMK A01 T00660025  RH  076%=      5-min Rain = 0
KKN1 161450Z 21004KT 07/03 A3018 RMK A01 T00710025  RH  074%=      5-min Rain = 0
KKN1 161455Z 21004KT 08/03 A3018 RMK A01 T00760026  RH  072%=      5-min Rain = 0
KKN1 161500Z 21006KT 08/03 A3017 RMK A01 T00820025  RH  069%=      5-min Rain = 0
KKN1 161505Z 20006KT 09/02 A3017 RMK A01 T00850024  RH  067%=      5-min Rain = 0
KKN1 161510Z 21005KT 09/03 A3017 RMK A01 T00870026  RH  066%=      5-min Rain = 0
KKN1 161515Z 20006KT 09/03 A3017 RMK A01 T00930025  RH  064%=      5-min Rain = 0
KKN1 161520Z 21005KT 10/03 A3017 RMK A01 T01000028  RH  062%=      5-min Rain = 0
KKN1 161525Z 22006KT 10/03 A3017 RMK A01 T01040027  RH  060%=      5-min Rain = 0
KKN1 161530Z 21004KT 11/03 A3017 RMK A01 T01080028  RH  059%=      5-min Rain = 0
KKN1 161535Z 24004KT 11/03 A3017 RMK A01 T01060029  RH  060%=      5-min Rain = 0
KKN1 161540Z 23004KT 11/03 A3017 RMK A01 T01100031  RH  059%=      5-min Rain = 0
KKN1 161545Z 21008G14KT 12/03 A3017 RMK A01 T01160027  RH  055%=      5-min Rain = 0
KKN1 161550Z 20013KT 12/02 A3017 RMK A01 T01220018  RH  050%=      5-min Rain = 0
KKN1 161555Z 21012KT 12/02 A3017 RMK A01 T01230017  RH  049%=      5-min Rain = 0
KKN1 161600Z 21011KT 13/02 A3016 RMK A01 T01270020  RH  049%=      5-min Rain = 0
KKN1 161605Z 21012KT 13/02 A3016 RMK A01 T01300018  RH  047%=      5-min Rain = 0
KKN1 161610Z 21012KT 13/02 A3016 RMK A01 T01310018  RH  047%=      5-min Rain = 0
KKN1 161615Z 21013KT 13/02 A3016 RMK A01 T01310016  RH  046%=      5-min Rain = 0
KKN1 161620Z 21012KT 13/02 A3016 RMK A01 T01300017  RH  047%=      5-min Rain = 0
KKN1 161625Z 21012KT 14/02 A3015 RMK A01 T01350020  RH  046%=      5-min Rain = 0
KKN1 161630Z 21013KT 14/02 A3015 RMK A01 T01380022  RH  046%=      5-min Rain = 0
KKN1 161635Z 21013KT 14/02 A3015 RMK A01 T01400022  RH  046%=      5-min Rain = 0
KKN1 161640Z 21013KT 14/02 A3015 RMK A01 T01410022  RH  045%=      5-min Rain = 0
KKN1 161645Z 21011KT 14/02 A3015 RMK A01 T01390023  RH  046%=      5-min Rain = 0
KKN1 161650Z 21012KT 14/02 A3015 RMK A01 T01430024  RH  045%=      5-min Rain = 0
KKN1 161655Z 20013KT 14/02 A3014 RMK A01 T01390022  RH  046%=      5-min Rain = 0
KKN1 161700Z 20011KT 14/02 A3014 RMK A01 T01400024  RH  046%=      5-min Rain = 0
KKN1 161705Z 19011G16KT 14/03 A3014 RMK A01 T01430026  RH  046%=      5-min Rain = 0
KKN1 161710Z 20009KT 14/03 A3014 RMK A01 T01430026  RH  046%=      5-min Rain = 0
KKN1 161715Z 20008KT 15/03 A3014 RMK A01 T01470028  RH  046%=      5-min Rain = 0
KKN1 161720Z 21009KT 15/03 A3013 RMK A01 T01460027  RH  045%=      5-min Rain = 0
KKN1 161725Z 21008KT 15/03 A3013 RMK A01 T01490029  RH  045%=      5-min Rain = 0
KKN1 161730Z 20009KT 15/03 A3012 RMK A01 T01540030  RH  044%=      5-min Rain = 0
KKN1 161735Z 20010KT 16/03 A3012 RMK A01 T01580030  RH  043%=      5-min Rain = 0
KKN1 161740Z 17008KT 16/03 A3012 RMK A01 T01570030  RH  043%=      5-min Rain = 0
KKN1 161745Z 17009KT 16/03 A3012 RMK A01 T01560030  RH  043%=      5-min Rain = 0
KKN1 161750Z 17009KT 16/03 A3011 RMK A01 T01610031  RH  043%=      5-min Rain = 0
KKN1 161755Z 17011G17KT 16/03 A3011 RMK A01 T01620032  RH  043%=      5-min Rain = 0
KKN1 161800Z 18011KT 16/03 A3011 RMK A01 T01640034  RH  042%=      5-min Rain = 0
KKN1 161805Z 19012KT 17/03 A301 RMK A01 T01670034  RH  042%=      5-min Rain = 0
KKN1 161810Z 18012KT 17/04 A301 RMK A01 T01680035  RH  042%=      5-min Rain = 0
KKN1 161815Z 18012KT 17/03 A301 RMK A01 T01670034  RH  042%=      5-min Rain = 0
KKN1 161820Z 18011KT 17/04 A301 RMK A01 T01680035  RH  042%=      5-min Rain = 0
KKN1 161825Z 18011KT 17/04 A3009 RMK A01 T01690035  RH  042%=      5-min Rain = 0
KKN1 161830Z 18010KT 17/04 A3009 RMK A01 T01710035  RH  041%=      5-min Rain = 0
KKN1 161835Z 19009KT 17/04 A3008 RMK A01 T01730035  RH  041%=      5-min Rain = 0
KKN1 161840Z 18008KT 18/04 A3008 RMK A01 T01760036  RH  040%=      5-min Rain = 0
KKN1 161845Z 18008KT 18/04 A3008 RMK A01 T01770036  RH  040%=      5-min Rain = 0
KKN1 161850Z 17012KT 18/04 A3007 RMK A01 T01810037  RH  039%=      5-min Rain = 0
KKN1 161855Z 17011KT 19/04 A3006 RMK A01 T01850036  RH  038%=      5-min Rain = 0
KKN1 161900Z 19010KT 19/04 A3006 RMK A01 T01880037  RH  037%=      5-min Rain = 0
KKN1 161905Z 18010KT 19/04 A3006 RMK A01 T01920038  RH  037%=      5-min Rain = 0
KKN1 161910Z 17011G16KT 19/04 A3005 RMK A01 T01940037  RH  036%=      5-min Rain = 0
KKN1 161915Z 17012KT 20/04 A3004 RMK A01 T01950038  RH  036%=      5-min Rain = 0
KKN1 161920Z 17011KT 20/04 A3004 RMK A01 T01960038  RH  036%=      5-min Rain = 0
KKN1 161925Z 17012G19KT 20/04 A3003 RMK A01 T01990037  RH  035%=      5-min Rain = 0
KKN1 161930Z 17014KT 20/04 A3003 RMK A01 T01980038  RH  035%=      5-min Rain = 0
KKN1 161935Z 16013KT 20/04 A3002 RMK A01 T02000038  RH  035%=      5-min Rain = 0
KKN1 161940Z 17011G16KT 20/04 A3002 RMK A01 T01980037  RH  035%=      5-min Rain = 0
KKN1 161945Z 17012KT 20/04 A3002 RMK A01 T01980037  RH  035%=      5-min Rain = 0
KKN1 161950Z 15011KT 20/04 A3002 RMK A01 T01950035  RH  035%=      5-min Rain = 0
KKN1 161955Z 17012KT 20/04 A3002 RMK A01 T01970038  RH  036%=      5-min Rain = 0
KKN1 162000Z 17011KT 20/04 A3002 RMK A01 T01950037  RH  036%=      5-min Rain = 0
KKN1 162005Z 15013G18KT 19/03 A3002 RMK A01 T01940034  RH  035%=      5-min Rain = 0
KKN1 162010Z 17014KT 19/04 A3001 RMK A01 T01920036  RH  036%=      5-min Rain = 0
KKN1 162015Z 16013KT 19/04 A3001 RMK A01 T01910037  RH  037%=      5-min Rain = 0
KKN1 162020Z 17013KT 19/04 A3001 RMK A01 T01930039  RH  037%=      5-min Rain = 0
KKN1 162025Z 17014KT 19/04 A3001 RMK A01 T01930041  RH  037%=      5-min Rain = 0
KKN1 162030Z 17013G18KT 19/04 A3001 RMK A01 T01930041  RH  037%=      5-min Rain = 0
KKN1 162035Z 17014KT 19/04 A3001 RMK A01 T01930042  RH  037%=      5-min Rain = 0
KKN1 162040Z 17013KT 19/04 A3001 RMK A01 T01940042  RH  037%=      5-min Rain = 0
KKN1 162045Z 17012KT 20/04 A3001 RMK A01 T01960040  RH  036%=      5-min Rain = 0
KKN1 162050Z 17012KT 20/04 A30 RMK A01 T01990043  RH  037%=      5-min Rain = 0
KKN1 162055Z 17012KT 20/04 A30 RMK A01 T02000043  RH  036%=      5-min Rain = 0
KKN1 162100Z 17013G18KT 20/04 A30 RMK A01 T02040044  RH  036%=      5-min Rain = 0
KKN1 162105Z 17012G17KT 20/05 A30 RMK A01 T02040045  RH  036%=      5-min Rain = 0
KKN1 162110Z 18012KT 21/04 A30 RMK A01 T02060043  RH  035%=      5-min Rain = 0
KKN1 162115Z 18012G18KT 20/04 A30 RMK A01 T02020044  RH  036%=      5-min Rain = 0
KKN1 162120Z 18014KT 20/04 A2999 RMK A01 T02010044  RH  036%=      5-min Rain = 0
KKN1 162125Z 17013KT 20/04 A30 RMK A01 T01980043  RH  037%=      5-min Rain = 0
KKN1 162130Z 18014KT 20/04 A2999 RMK A01 T01980044  RH  037%=      5-min Rain = 0
KKN1 162135Z 17015KT 20/04 A2999 RMK A01 T01970041  RH  036%=      5-min Rain = 0
KKN1 162140Z 17013KT 20/04 A2999 RMK A01 T01970042  RH  037%=      5-min Rain = 0
KKN1 162145Z 16016KT 20/04 A2999 RMK A01 T01950039  RH  036%=      5-min Rain = 0
KKN1 162150Z 17013KT 19/04 A30 RMK A01 T01930038  RH  037%=      5-min Rain = 0
KKN1 162155Z 17012KT 19/04 A30 RMK A01 T01920038  RH  037%=      5-min Rain = 0
KKN1 162200Z 17012KT 19/04 A2999 RMK A01 T01920035  RH  036%=      5-min Rain = 0
KKN1 162205Z 16014KT 19/04 A2999 RMK A01 T01910035  RH  036%=      5-min Rain = 0
KKN1 162210Z 16014G19KT 19/04 A2999 RMK A01 T01900036  RH  037%=      5-min Rain = 0
KKN1 162215Z 16014KT 19/04 A2999 RMK A01 T01910037  RH  037%=      5-min Rain = 0
KKN1 162220Z 16015KT 19/04 A2999 RMK A01 T01910036  RH  037%=      5-min Rain = 0
KKN1 162225Z 16014KT 19/04 A2998 RMK A01 T01910036  RH  036%=      5-min Rain = 0
KKN1 162230Z 16015KT 19/04 A2998 RMK A01 T01920036  RH  036%=      5-min Rain = 0
KKN1 162235Z 17014G19KT 19/04 A2998 RMK A01 T01910037  RH  037%=      5-min Rain = 0
KKN1 162240Z 16014KT 19/04 A2998 RMK A01 T01880037  RH  038%=      5-min Rain = 0
KKN1 162245Z 16014KT 19/03 A2998 RMK A01 T01850034  RH  037%=      5-min Rain = 0
KKN1 162250Z 16014KT 18/03 A2998 RMK A01 T01830034  RH  038%=      5-min Rain = 0
KKN1 162255Z 16012KT 18/04 A2998 RMK A01 T01820035  RH  038%=      5-min Rain = 0
KKN1 162300Z 16012KT 18/04 A2998 RMK A01 T01800036  RH  039%=      5-min Rain = 0
KKN1 162305Z 16011KT 18/04 A2998 RMK A01 T01780036  RH  039%=      5-min Rain = 0
KKN1 162310Z 16009KT 18/04 A2998 RMK A01 T01760037  RH  040%=      5-min Rain = 0
KKN1 162315Z 16008KT 18/04 A2998 RMK A01 T01750038  RH  041%=      5-min Rain = 0
KKN1 162320Z 17009KT 17/04 A2998 RMK A01 T01740036  RH  041%=      5-min Rain = 0
KKN1 162325Z 17009KT 17/04 A2998 RMK A01 T01730035  RH  041%=      5-min Rain = 0
KKN1 162330Z 17009KT 17/04 A2998 RMK A01 T01710035  RH  041%=      5-min Rain = 0
KKN1 162335Z 17009KT 17/04 A2998 RMK A01 T01690035  RH  042%=      5-min Rain = 0
KKN1 162340Z 16008KT 16/04 A2998 RMK A01 T01640035  RH  043%=      5-min Rain = 0
KKN1 162345Z 16008KT 16/04 A2998 RMK A01 T01610035  RH  044%=      5-min Rain = 0
KKN1 162350Z 16008KT 16/04 A2998 RMK A01 T01590035  RH  044%=      5-min Rain = 0
KKN1 162355Z 16008KT 16/04 A2998 RMK A01 T01560035  RH  045%=      5-min Rain = 0
KKN1 170000Z 16008KT 15/04 A2998 RMK A01 T01530035  RH  046%=      5-min Rain = 0
KKN1 170005Z 16008KT 15/04 A2998 RMK A01 T01500036  RH  047%=      5-min Rain = 0
KKN1 170010Z 16009KT 15/04 A2998 RMK A01 T01490036  RH  048%=      5-min Rain = 0
KKN1 170015Z 16010KT 15/04 A2998 RMK A01 T01500036  RH  047%=      5-min Rain = 0
KKN1 170020Z 16010KT 15/04 A2998 RMK A01 T01510036  RH  047%=      5-min Rain = 0
KKN1 170025Z 16011KT 15/04 A2998 RMK A01 T01520036  RH  047%=      5-min Rain = 0
KKN1 170030Z 16011KT 15/04 A2998 RMK A01 T01520036  RH  046%=      5-min Rain = 0
KKN1 170035Z 16011KT 15/04 A2998 RMK A01 T01520036  RH  047%=      5-min Rain = 0
KKN1 170040Z 16011KT 15/04 A2998 RMK A01 T01520035  RH  046%=      5-min Rain = 0
KKN1 170045Z 17010KT 15/04 A2998 RMK A01 T01540035  RH  046%=      5-min Rain = 0
KKN1 170050Z 17010KT 15/04 A2998 RMK A01 T01520035  RH  046%=      5-min Rain = 0
KKN1 170055Z 16009KT 15/04 A2998 RMK A01 T01490035  RH  047%=      5-min Rain = 0
KKN1 170100Z 16010KT 15/04 A2998 RMK A01 T01470035  RH  048%=      5-min Rain = 0
KKN1 170105Z 16010KT 14/04 A2998 RMK A01 T01440035  RH  049%=      5-min Rain = 0
KKN1 170110Z 16010KT 14/04 A2998 RMK A01 T01420035  RH  050%=      5-min Rain = 0
KKN1 170115Z 15009KT 14/04 A2998 RMK A01 T01390036  RH  051%=      5-min Rain = 0
KKN1 170120Z 16009KT 14/04 A2998 RMK A01 T01350037  RH  052%=      5-min Rain = 0
KKN1 170125Z 15011KT 13/04 A2998 RMK A01 T01330037  RH  053%=      5-min Rain = 0
KKN1 170130Z 15011KT 13/04 A2998 RMK A01 T01330037  RH  053%=      5-min Rain = 0
KKN1 170135Z 16009KT 13/04 A2998 RMK A01 T01310037  RH  054%=      5-min Rain = 0
KKN1 170140Z 15009KT 13/04 A2998 RMK A01 T01290038  RH  055%=      5-min Rain = 0
KKN1 170145Z 15009KT 13/04 A2998 RMK A01 T01270038  RH  056%=      5-min Rain = 0
KKN1 170150Z 16010KT 13/04 A2998 RMK A01 T01250037  RH  056%=      5-min Rain = 0
KKN1 170155Z 15010KT 13/04 A2998 RMK A01 T01250036  RH  056%=      5-min Rain = 0
KKN1 170200Z 16010KT 13/03 A2998 RMK A01 T01250033  RH  054%=      5-min Rain = 0
KKN1 170205Z 16010KT 13/03 A2998 RMK A01 T01260031  RH  053%=      5-min Rain = 0
KKN1 170210Z 16009KT 13/03 A2998 RMK A01 T01260029  RH  053%=      5-min Rain = 0
KKN1 170215Z 16010KT 13/03 A2998 RMK A01 T01250027  RH  052%=      5-min Rain = 0
KKN1 170220Z 16009KT 13/03 A2998 RMK A01 T01250025  RH  052%=      5-min Rain = 0
KKN1 170225Z 16009KT 12/02 A2998 RMK A01 T01230024  RH  052%=      5-min Rain = 0
KKN1 170230Z 16009KT 12/02 A2998 RMK A01 T01220023  RH  051%=      5-min Rain = 0
KKN1 170235Z 15010KT 12/02 A2998 RMK A01 T01220022  RH  051%=      5-min Rain = 0
KKN1 170240Z 15009KT 12/02 A2998 RMK A01 T01200021  RH  051%=      5-min Rain = 0
KKN1 170245Z 15010KT 12/02 A2998 RMK A01 T01200020  RH  051%=      5-min Rain = 0
KKN1 170250Z 15010KT 12/02 A2998 RMK A01 T01190019  RH  051%=      5-min Rain = 0
KKN1 170255Z 16011KT 12/02 A2997 RMK A01 T01190018  RH  051%=      5-min Rain = 0
KKN1 170300Z 16010KT 12/02 A2998 RMK A01 T01170018  RH  051%=      5-min Rain = 0
KKN1 170305Z 16011KT 12/02 A2998 RMK A01 T01160018  RH  051%=      5-min Rain = 0
KKN1 170310Z 16011KT 12/02 A2997 RMK A01 T01160017  RH  052%=      5-min Rain = 0
KKN1 170315Z 16011KT 12/02 A2997 RMK A01 T01150017  RH  052%=      5-min Rain = 0
KKN1 170320Z 16012KT 12/02 A2997 RMK A01 T01150016  RH  051%=      5-min Rain = 0
KKN1 170325Z 16012KT 12/02 A2997 RMK A01 T01160017  RH  051%=      5-min Rain = 0
KKN1 170330Z 16012KT 12/02 A2997 RMK A01 T01160017  RH  051%=      5-min Rain = 0
KKN1 170335Z 16011KT 12/02 A2997 RMK A01 T01160017  RH  051%=      5-min Rain = 0
KKN1 170340Z 16011KT 12/02 A2997 RMK A01 T01160016  RH  051%=      5-min Rain = 0
KKN1 170345Z 16011KT 12/02 A2997 RMK A01 T01150017  RH  052%=      5-min Rain = 0
KKN1 170350Z 16012KT 12/02 A2997 RMK A01 T01170016  RH  051%=      5-min Rain = 0
KKN1 170355Z 16011KT 12/02 A2997 RMK A01 T01180016  RH  051%=      5-min Rain = 0
KKN1 170400Z 16011KT 12/02 A2997 RMK A01 T01180017  RH  051%=      5-min Rain = 0
KKN1 170405Z 16011KT 12/02 A2997 RMK A01 T01170018  RH  051%=      5-min Rain = 0
KKN1 170410Z 16011KT 12/02 A2996 RMK A01 T01160018  RH  052%=      5-min Rain = 0
KKN1 170415Z 17012KT 12/02 A2996 RMK A01 T01150019  RH  052%=      5-min Rain = 0
KKN1 170420Z 17011KT 11/02 A2997 RMK A01 T01140019  RH  053%=      5-min Rain = 0
KKN1 170425Z 17011KT 11/02 A2997 RMK A01 T01120019  RH  054%=      5-min Rain = 0
KKN1 170430Z 17012KT 11/02 A2997 RMK A01 T01110019  RH  054%=      5-min Rain = 0
KKN1 170435Z 17012KT 11/02 A2997 RMK A01 T01100020  RH  054%=      5-min Rain = 0
KKN1 170440Z 17011KT 11/02 A2997 RMK A01 T01090020  RH  055%=      5-min Rain = 0
KKN1 170445Z 17011KT 11/02 A2997 RMK A01 T01070021  RH  056%=      5-min Rain = 0
KKN1 170450Z 17010KT 11/02 A2997 RMK A01 T01050021  RH  057%=      5-min Rain = 0
KKN1 170455Z 17009KT 10/02 A2998 RMK A01 T01030021  RH  058%=      5-min Rain = 0
KKN1 170500Z 17009KT 10/02 A2998 RMK A01 T01010021  RH  059%=      5-min Rain = 0
KKN1 170505Z 18009KT 10/02 A2998 RMK A01 T01000022  RH  059%=      5-min Rain = 0
KKN1 170510Z 18009KT 10/02 A2998 RMK A01 T01010022  RH  059%=      5-min Rain = 0
KKN1 170515Z 18009KT 10/02 A2998 RMK A01 T01010023  RH  059%=      5-min Rain = 0
KKN1 170520Z 17009KT 10/02 A2998 RMK A01 T00990023  RH  060%=      5-min Rain = 0
KKN1 170525Z 17008KT 10/02 A2998 RMK A01 T00990024  RH  061%=      5-min Rain = 0
KKN1 170530Z 17009KT 10/02 A2998 RMK A01 T00990024  RH  060%=      5-min Rain = 0
KKN1 170535Z 17008KT 10/03 A2998 RMK A01 T00990025  RH  061%=      5-min Rain = 0
KKN1 170540Z 17007KT 10/03 A2998 RMK A01 T00990025  RH  061%=      5-min Rain = 0
KKN1 170545Z 17005KT 10/03 A2998 RMK A01 T00980025  RH  061%=      5-min Rain = 0
KKN1 170550Z 17004KT 10/03 A2998 RMK A01 T00970026  RH  062%=      5-min Rain = 0
KKN1 170555Z 19003KT 10/03 A2999 RMK A01 T00950026  RH  063%=      5-min Rain = 0

Page generated in 0.0092 seconds.